sensor_id;sensor_type;location;lat;lon;timestamp;pressure;altitude;pressure_sealevel;temperature;humidity
10348;BME280;5220;43.192;23.284;2023-01-29T00:00:14;97162.84;;;4.55;100.00
10348;BME280;5220;43.192;23.284;2023-01-29T00:02:41;97170.59;;;4.55;100.00
10348;BME280;5220;43.192;23.284;2023-01-29T00:05:08;97173.94;;;4.57;100.00
10348;BME280;5220;43.192;23.284;2023-01-29T00:07:36;97177.34;;;4.58;100.00
10348;BME280;5220;43.192;23.284;2023-01-29T00:10:03;97182.47;;;4.58;100.00
10348;BME280;5220;43.192;23.284;2023-01-29T00:12:29;97177.47;;;4.55;100.00
10348;BME280;5220;43.192;23.284;2023-01-29T00:14:56;97175.88;;;4.52;100.00
10348;BME280;5220;43.192;23.284;2023-01-29T00:17:23;97182.63;;;4.55;100.00
10348;BME280;5220;43.192;23.284;2023-01-29T00:19:49;97187.88;;;4.53;100.00
10348;BME280;5220;43.192;23.284;2023-01-29T00:22:16;97193.91;;;4.52;100.00
10348;BME280;5220;43.192;23.284;2023-01-29T00:24:44;97196.63;;;4.49;100.00
10348;BME280;5220;43.192;23.284;2023-01-29T00:27:11;97198.22;;;4.52;100.00
10348;BME280;5220;43.192;23.284;2023-01-29T00:29:37;97184.59;;;4.50;100.00
10348;BME280;5220;43.192;23.284;2023-01-29T00:32:04;97187.16;;;4.50;100.00
10348;BME280;5220;43.192;23.284;2023-01-29T00:34:31;97187.91;;;4.52;100.00
10348;BME280;5220;43.192;23.284;2023-01-29T00:36:57;97188.06;;;4.49;100.00
10348;BME280;5220;43.192;23.284;2023-01-29T00:39:29;97196.84;;;4.45;100.00
10348;BME280;5220;43.192;23.284;2023-01-29T00:42:04;97196.72;;;4.48;100.00
10348;BME280;5220;43.192;23.284;2023-01-29T00:44:48;97199.19;;;4.49;100.00
10348;BME280;5220;43.192;23.284;2023-01-29T00:47:24;97201.91;;;4.46;100.00
10348;BME280;5220;43.192;23.284;2023-01-29T00:49:58;97205.28;;;4.48;100.00
10348;BME280;5220;43.192;23.284;2023-01-29T00:52:25;97202.69;;;4.48;100.00
10348;BME280;5220;43.192;23.284;2023-01-29T00:54:53;97199.28;;;4.48;100.00
10348;BME280;5220;43.192;23.284;2023-01-29T00:57:21;97192.44;;;4.47;100.00
10348;BME280;5220;43.192;23.284;2023-01-29T00:59:48;97194.59;;;4.37;100.00
10348;BME280;5220;43.192;23.284;2023-01-29T01:02:14;97204.84;;;4.39;100.00
10348;BME280;5220;43.192;23.284;2023-01-29T01:04:59;97208.47;;;4.14;100.00
10348;BME280;5220;43.192;23.284;2023-01-29T01:07:27;97207.19;;;4.24;100.00
10348;BME280;5220;43.192;23.284;2023-01-29T01:09:54;97215.56;;;4.29;100.00
10348;BME280;5220;43.192;23.284;2023-01-29T01:12:39;97212.06;;;4.30;100.00
10348;BME280;5220;43.192;23.284;2023-01-29T01:15:06;97219.66;;;4.33;100.00
10348;BME280;5220;43.192;23.284;2023-01-29T01:17:33;97219.00;;;4.10;100.00
10348;BME280;5220;43.192;23.284;2023-01-29T01:20:00;97214.78;;;4.27;100.00
10348;BME280;5220;43.192;23.284;2023-01-29T01:22:27;97215.34;;;4.34;100.00
10348;BME280;5220;43.192;23.284;2023-01-29T01:24:53;97220.34;;;4.37;100.00
10348;BME280;5220;43.192;23.284;2023-01-29T01:27:20;97224.63;;;4.38;100.00
10348;BME280;5220;43.192;23.284;2023-01-29T01:29:48;97223.78;;;4.38;100.00
10348;BME280;5220;43.192;23.284;2023-01-29T01:32:15;97226.34;;;4.38;100.00
10348;BME280;5220;43.192;23.284;2023-01-29T01:34:41;97230.53;;;4.40;100.00
10348;BME280;5220;43.192;23.284;2023-01-29T01:37:09;97230.34;;;4.45;100.00
10348;BME280;5220;43.192;23.284;2023-01-29T01:39:36;97230.38;;;4.43;100.00
10348;BME280;5220;43.192;23.284;2023-01-29T01:42:04;97238.09;;;4.43;100.00
10348;BME280;5220;43.192;23.284;2023-01-29T01:44:52;97231.22;;;4.44;100.00
10348;BME280;5220;43.192;23.284;2023-01-29T01:47:23;97239.84;;;4.43;100.00
10348;BME280;5220;43.192;23.284;2023-01-29T01:49:53;97236.50;;;4.41;100.00
10348;BME280;5220;43.192;23.284;2023-01-29T01:52:21;97240.81;;;4.40;100.00
10348;BME280;5220;43.192;23.284;2023-01-29T01:54:48;97231.50;;;4.38;100.00
10348;BME280;5220;43.192;23.284;2023-01-29T01:57:20;97234.97;;;4.37;100.00
10348;BME280;5220;43.192;23.284;2023-01-29T01:59:56;97235.88;;;4.36;100.00
10348;BME280;5220;43.192;23.284;2023-01-29T02:02:25;97237.69;;;4.33;100.00
10348;BME280;5220;43.192;23.284;2023-01-29T02:05:10;97240.25;;;4.33;100.00
10348;BME280;5220;43.192;23.284;2023-01-29T02:07:57;97232.78;;;4.27;100.00
10348;BME280;5220;43.192;23.284;2023-01-29T02:10:43;97233.50;;;4.31;100.00
10348;BME280;5220;43.192;23.284;2023-01-29T02:13:11;97236.91;;;4.31;100.00
10348;BME280;5220;43.192;23.284;2023-01-29T02:15:41;97240.25;;;4.33;100.00
10348;BME280;5220;43.192;23.284;2023-01-29T02:18:14;97238.59;;;4.32;100.00
10348;BME280;5220;43.192;23.284;2023-01-29T02:20:48;97226.53;;;4.33;100.00
10348;BME280;5220;43.192;23.284;2023-01-29T02:26:32;97241.22;;;4.31;100.00
10348;BME280;5220;43.192;23.284;2023-01-29T02:29:07;97241.97;;;4.33;100.00
10348;BME280;5220;43.192;23.284;2023-01-29T02:31:54;97247.97;;;4.33;100.00
10348;BME280;5220;43.192;23.284;2023-01-29T02:34:29;97245.41;;;4.33;100.00
10348;BME280;5220;43.192;23.284;2023-01-29T02:37:17;97247.13;;;4.33;100.00
10348;BME280;5220;43.192;23.284;2023-01-29T02:39:51;97249.66;;;4.34;100.00
10348;BME280;5220;43.192;23.284;2023-01-29T02:42:25;97250.69;;;4.30;100.00
10348;BME280;5220;43.192;23.284;2023-01-29T02:44:59;97249.94;;;4.28;100.00
10348;BME280;5220;43.192;23.284;2023-01-29T02:47:34;97246.69;;;4.23;100.00
10348;BME280;5220;43.192;23.284;2023-01-29T02:50:07;97245.09;;;4.21;100.00
10348;BME280;5220;43.192;23.284;2023-01-29T02:52:40;97248.53;;;4.01;100.00
10348;BME280;5220;43.192;23.284;2023-01-29T02:55:18;97243.19;;;3.86;100.00
10348;BME280;5220;43.192;23.284;2023-01-29T02:57:48;97240.94;;;3.98;100.00
10348;BME280;5220;43.192;23.284;2023-01-29T03:00:20;97247.03;;;3.96;100.00
10348;BME280;5220;43.192;23.284;2023-01-29T03:02:53;97252.91;;;3.99;100.00
10348;BME280;5220;43.192;23.284;2023-01-29T03:05:27;97258.00;;;4.01;100.00
10348;BME280;5220;43.192;23.284;2023-01-29T03:08:00;97246.09;;;3.98;100.00
10348;BME280;5220;43.192;23.284;2023-01-29T03:10:32;97255.34;;;4.02;100.00
10348;BME280;5220;43.192;23.284;2023-01-29T03:13:05;97243.72;;;4.14;100.00
10348;BME280;5220;43.192;23.284;2023-01-29T03:15:39;97248.50;;;4.21;100.00
10348;BME280;5220;43.192;23.284;2023-01-29T03:18:13;97244.72;;;3.90;100.00
10348;BME280;5220;43.192;23.284;2023-01-29T03:20:44;97252.50;;;4.08;100.00
10348;BME280;5220;43.192;23.284;2023-01-29T03:23:16;97259.69;;;4.20;100.00
10348;BME280;5220;43.192;23.284;2023-01-29T03:25:53;97261.25;;;4.24;100.00
10348;BME280;5220;43.192;23.284;2023-01-29T03:28:42;97266.28;;;4.27;100.00
10348;BME280;5220;43.192;23.284;2023-01-29T03:31:30;97268.00;;;4.27;100.00
10348;BME280;5220;43.192;23.284;2023-01-29T03:34:16;97274.13;;;4.24;100.00
10348;BME280;5220;43.192;23.284;2023-01-29T03:36:53;97273.09;;;4.28;100.00
10348;BME280;5220;43.192;23.284;2023-01-29T03:39:22;97270.44;;;4.30;100.00
10348;BME280;5220;43.192;23.284;2023-01-29T03:41:54;97271.16;;;4.33;100.00
10348;BME280;5220;43.192;23.284;2023-01-29T03:44:29;97270.31;;;4.33;100.00
10348;BME280;5220;43.192;23.284;2023-01-29T03:47:08;97270.31;;;4.33;100.00
10348;BME280;5220;43.192;23.284;2023-01-29T03:49:55;97267.69;;;4.34;100.00
10348;BME280;5220;43.192;23.284;2023-01-29T03:52:25;97266.00;;;4.33;100.00
10348;BME280;5220;43.192;23.284;2023-01-29T03:54:57;97270.31;;;4.33;100.00
10348;BME280;5220;43.192;23.284;2023-01-29T03:57:32;97268.56;;;4.33;100.00
10348;BME280;5220;43.192;23.284;2023-01-29T04:00:05;97272.06;;;4.32;100.00
10348;BME280;5220;43.192;23.284;2023-01-29T04:02:42;97265.03;;;4.36;100.00
10348;BME280;5220;43.192;23.284;2023-01-29T04:05:15;97271.03;;;4.37;100.00
10348;BME280;5220;43.192;23.284;2023-01-29T04:07:43;97264.34;;;4.32;100.00
10348;BME280;5220;43.192;23.284;2023-01-29T04:10:12;97268.56;;;4.33;100.00
10348;BME280;5220;43.192;23.284;2023-01-29T04:12:43;97262.44;;;4.36;100.00
10348;BME280;5220;43.192;23.284;2023-01-29T04:15:13;97267.69;;;4.34;100.00
10348;BME280;5220;43.192;23.284;2023-01-29T04:17:44;97274.53;;;4.36;100.00
10348;BME280;5220;43.192;23.284;2023-01-29T04:20:14;97265.94;;;4.35;100.00
10348;BME280;5220;43.192;23.284;2023-01-29T04:22:44;97273.59;;;4.37;100.00
10348;BME280;5220;43.192;23.284;2023-01-29T04:25:13;97272.63;;;4.39;100.00
10348;BME280;5220;43.192;23.284;2023-01-29T04:27:44;97268.41;;;4.38;100.00
10348;BME280;5220;43.192;23.284;2023-01-29T04:30:25;97270.13;;;4.38;100.00
10348;BME280;5220;43.192;23.284;2023-01-29T04:33:03;97274.38;;;4.39;100.00
10348;BME280;5220;43.192;23.284;2023-01-29T04:35:43;97275.16;;;4.41;100.00
10348;BME280;5220;43.192;23.284;2023-01-29T04:41:04;97276.03;;;4.40;100.00
10348;BME280;5220;43.192;23.284;2023-01-29T04:43:40;97277.91;;;4.36;100.00
10348;BME280;5220;43.192;23.284;2023-01-29T04:46:12;97277.91;;;4.36;100.00
10348;BME280;5220;43.192;23.284;2023-01-29T04:48:57;97279.59;;;4.37;100.00
10348;BME280;5220;43.192;23.284;2023-01-29T04:51:33;97283.00;;;4.38;100.00
10348;BME280;5220;43.192;23.284;2023-01-29T04:54:07;97283.00;;;4.38;100.00
10348;BME280;5220;43.192;23.284;2023-01-29T04:56:40;97282.91;;;4.39;100.00
10348;BME280;5220;43.192;23.284;2023-01-29T04:59:12;97276.25;;;4.35;100.00
10348;BME280;5220;43.192;23.284;2023-01-29T05:01:42;97280.47;;;4.36;100.00
10348;BME280;5220;43.192;23.284;2023-01-29T05:04:13;97278.00;;;4.34;100.00
10348;BME280;5220;43.192;23.284;2023-01-29T05:06:42;97289.13;;;4.35;100.00
10348;BME280;5220;43.192;23.284;2023-01-29T05:09:12;97290.88;;;4.34;100.00
10348;BME280;5220;43.192;23.284;2023-01-29T05:11:40;97285.75;;;4.33;100.00
10348;BME280;5220;43.192;23.284;2023-01-29T05:14:10;97293.31;;;4.38;100.00
10348;BME280;5220;43.192;23.284;2023-01-29T05:16:41;97300.28;;;4.36;100.00
10348;BME280;5220;43.192;23.284;2023-01-29T05:19:11;97300.13;;;4.39;100.00
10348;BME280;5220;43.192;23.284;2023-01-29T05:21:41;97290.88;;;4.34;100.00
10348;BME280;5220;43.192;23.284;2023-01-29T05:24:10;97294.19;;;4.37;100.00
10348;BME280;5220;43.192;23.284;2023-01-29T05:26:37;97299.28;;;4.38;100.00
10348;BME280;5220;43.192;23.284;2023-01-29T05:29:22;97299.34;;;4.37;100.00
10348;BME280;5220;43.192;23.284;2023-01-29T05:31:49;97300.94;;;4.39;100.00
10348;BME280;5220;43.192;23.284;2023-01-29T05:34:17;97306.19;;;4.38;100.00
10348;BME280;5220;43.192;23.284;2023-01-29T05:36:44;97305.28;;;4.39;100.00
10348;BME280;5220;43.192;23.284;2023-01-29T05:39:10;97313.00;;;4.39;100.00
10348;BME280;5220;43.192;23.284;2023-01-29T05:41:37;97311.19;;;4.41;100.00
10348;BME280;5220;43.192;23.284;2023-01-29T05:44:04;97303.75;;;4.34;100.00
10348;BME280;5220;43.192;23.284;2023-01-29T05:46:31;97305.56;;;4.32;100.00
10348;BME280;5220;43.192;23.284;2023-01-29T05:48:57;97306.38;;;4.33;100.00
10348;BME280;5220;43.192;23.284;2023-01-29T05:51:26;97305.41;;;4.36;100.00
10348;BME280;5220;43.192;23.284;2023-01-29T05:53:52;97311.25;;;4.39;100.00
10348;BME280;5220;43.192;23.284;2023-01-29T05:56:19;97321.69;;;4.36;100.00
10348;BME280;5220;43.192;23.284;2023-01-29T05:58:46;97323.25;;;4.40;100.00
10348;BME280;5220;43.192;23.284;2023-01-29T06:01:15;97326.69;;;4.39;100.00
10348;BME280;5220;43.192;23.284;2023-01-29T06:03:42;97325.75;;;4.42;100.00
10348;BME280;5220;43.192;23.284;2023-01-29T06:06:09;97326.66;;;4.41;100.00
10348;BME280;5220;43.192;23.284;2023-01-29T06:08:37;97330.00;;;4.43;100.00
10348;BME280;5220;43.192;23.284;2023-01-29T06:11:07;97334.38;;;4.41;100.00
10348;BME280;5220;43.192;23.284;2023-01-29T06:13:34;97341.22;;;4.42;100.00
10348;BME280;5220;43.192;23.284;2023-01-29T06:16:03;97332.56;;;4.43;100.00
10348;BME280;5220;43.192;23.284;2023-01-29T06:18:30;97340.28;;;4.43;100.00
10348;BME280;5220;43.192;23.284;2023-01-29T06:20:59;97340.28;;;4.43;100.00
10348;BME280;5220;43.192;23.284;2023-01-29T06:23:26;97343.66;;;4.45;100.00
10348;BME280;5220;43.192;23.284;2023-01-29T06:25:58;97350.59;;;4.43;100.00
10348;BME280;5220;43.192;23.284;2023-01-29T06:28:25;97360.13;;;4.41;100.00
10348;BME280;5220;43.192;23.284;2023-01-29T06:30:51;97355.88;;;4.40;100.00
10348;BME280;5220;43.192;23.284;2023-01-29T06:33:18;97360.13;;;4.41;100.00
10348;BME280;5220;43.192;23.284;2023-01-29T06:35:45;97364.44;;;4.40;100.00
10348;BME280;5220;43.192;23.284;2023-01-29T06:38:11;97358.44;;;4.40;100.00
10348;BME280;5220;43.192;23.284;2023-01-29T06:40:38;97366.88;;;4.43;100.00
10348;BME280;5220;43.192;23.284;2023-01-29T06:43:06;97367.16;;;4.37;100.00
10348;BME280;5220;43.192;23.284;2023-01-29T06:45:33;97368.63;;;4.43;100.00
10348;BME280;5220;43.192;23.284;2023-01-29T06:47:59;97374.56;;;4.45;100.00
10348;BME280;5220;43.192;23.284;2023-01-29T06:50:26;97373.59;;;4.47;100.00
10348;BME280;5220;43.192;23.284;2023-01-29T06:52:53;97371.16;;;4.44;100.00
10348;BME280;5220;43.192;23.284;2023-01-29T06:55:19;97380.47;;;4.47;100.00
10348;BME280;5220;43.192;23.284;2023-01-29T06:57:46;97387.25;;;4.49;100.00
10348;BME280;5220;43.192;23.284;2023-01-29T07:00:15;97392.34;;;4.51;100.00
10348;BME280;5220;43.192;23.284;2023-01-29T07:02:41;97392.38;;;4.49;100.00
10348;BME280;5220;43.192;23.284;2023-01-29T07:05:08;97392.22;;;4.54;100.00
10348;BME280;5220;43.192;23.284;2023-01-29T07:07:35;97391.28;;;4.55;100.00
10348;BME280;5220;43.192;23.284;2023-01-29T07:10:02;97395.63;;;4.54;100.00
10348;BME280;5220;43.192;23.284;2023-01-29T07:12:29;97397.50;;;4.51;100.00
10348;BME280;5220;43.192;23.284;2023-01-29T07:14:55;97400.97;;;4.50;100.00
10348;BME280;5220;43.192;23.284;2023-01-29T07:17:23;97404.25;;;4.53;100.00
10348;BME280;5220;43.192;23.284;2023-01-29T07:19:50;97402.44;;;4.55;100.00
10348;BME280;5220;43.192;23.284;2023-01-29T07:22:17;97399.81;;;4.57;100.00
10348;BME280;5220;43.192;23.284;2023-01-29T07:24:43;97405.09;;;4.54;100.00
10348;BME280;5220;43.192;23.284;2023-01-29T07:27:10;97398.88;;;4.58;100.00
10348;BME280;5220;43.192;23.284;2023-01-29T07:29:37;97412.34;;;4.64;100.00
10348;BME280;5220;43.192;23.284;2023-01-29T07:32:04;97414.03;;;4.65;100.00
10348;BME280;5220;43.192;23.284;2023-01-29T07:34:33;97410.63;;;4.65;100.00
10348;BME280;5220;43.192;23.284;2023-01-29T07:37:00;97410.47;;;4.68;100.00
10348;BME280;5220;43.192;23.284;2023-01-29T07:39:26;97414.88;;;4.66;100.00
10348;BME280;5220;43.192;23.284;2023-01-29T07:41:53;97411.47;;;4.65;100.00
10348;BME280;5220;43.192;23.284;2023-01-29T07:44:20;97412.16;;;4.69;100.00
10348;BME280;5220;43.192;23.284;2023-01-29T07:46:46;97410.47;;;4.68;100.00
10348;BME280;5220;43.192;23.284;2023-01-29T07:49:13;97409.84;;;4.63;100.00
10348;BME280;5220;43.192;23.284;2023-01-29T07:51:41;97417.31;;;4.69;100.00
10348;BME280;5220;43.192;23.284;2023-01-29T07:54:08;97417.19;;;4.72;100.00
10348;BME280;5220;43.192;23.284;2023-01-29T07:56:34;97423.06;;;4.75;100.00
10348;BME280;5220;43.192;23.284;2023-01-29T07:59:01;97420.63;;;4.72;100.00
10348;BME280;5220;43.192;23.284;2023-01-29T08:01:28;97430.56;;;4.80;100.00
10348;BME280;5220;43.192;23.284;2023-01-29T08:03:55;97431.56;;;4.77;100.00
10348;BME280;5220;43.192;23.284;2023-01-29T08:06:21;97428.84;;;4.80;100.00
10348;BME280;5220;43.192;23.284;2023-01-29T08:08:49;97435.88;;;4.77;100.00
10348;BME280;5220;43.192;23.284;2023-01-29T08:11:16;97432.41;;;4.78;100.00
10348;BME280;5220;43.192;23.284;2023-01-29T08:13:43;97437.41;;;4.81;100.00
10348;BME280;5220;43.192;23.284;2023-01-29T08:16:10;97440.88;;;4.80;100.00
10348;BME280;5220;43.192;23.284;2023-01-29T08:18:37;97438.97;;;4.85;100.00
10348;BME280;5220;43.192;23.284;2023-01-29T08:21:06;97446.75;;;4.83;100.00
10348;BME280;5220;43.192;23.284;2023-01-29T08:23:33;97452.75;;;4.84;100.00
10348;BME280;5220;43.192;23.284;2023-01-29T08:26:02;97450.94;;;4.86;100.00
10348;BME280;5220;43.192;23.284;2023-01-29T08:28:29;97449.53;;;4.79;100.00
10348;BME280;5220;43.192;23.284;2023-01-29T08:30:56;97454.69;;;4.79;100.00
10348;BME280;5220;43.192;23.284;2023-01-29T08:33:23;97455.34;;;4.84;100.00
10348;BME280;5220;43.192;23.284;2023-01-29T08:35:52;97450.31;;;4.81;100.00
10348;BME280;5220;43.192;23.284;2023-01-29T08:38:18;97458.00;;;4.82;100.00
10348;BME280;5220;43.192;23.284;2023-01-29T08:40:45;97453.50;;;4.86;100.00
10348;BME280;5220;43.192;23.284;2023-01-29T08:43:13;97466.97;;;4.93;100.00
10348;BME280;5220;43.192;23.284;2023-01-29T08:45:41;97468.72;;;4.92;100.00
10348;BME280;5220;43.192;23.284;2023-01-29T08:48:09;97472.97;;;4.93;100.00
10348;BME280;5220;43.192;23.284;2023-01-29T08:50:36;97471.38;;;4.91;100.00
10348;BME280;5220;43.192;23.284;2023-01-29T08:53:04;97467.97;;;4.90;100.00
10348;BME280;5220;43.192;23.284;2023-01-29T08:55:32;97475.63;;;4.92;100.00
10348;BME280;5220;43.192;23.284;2023-01-29T08:58:01;97473.75;;;4.95;100.00
10348;BME280;5220;43.192;23.284;2023-01-29T09:00:30;97479.38;;;4.84;100.00
10348;BME280;5220;43.192;23.284;2023-01-29T09:02:56;97474.94;;;4.88;100.00
10348;BME280;5220;43.192;23.284;2023-01-29T09:05:24;97468.84;;;4.89;100.00
10348;BME280;5220;43.192;23.284;2023-01-29T09:07:50;97468.34;;;4.81;100.00
10348;BME280;5220;43.192;23.284;2023-01-29T09:10:17;97473.13;;;4.90;100.00
10348;BME280;5220;43.192;23.284;2023-01-29T09:12:44;97473.31;;;4.85;100.00
10348;BME280;5220;43.192;23.284;2023-01-29T09:15:10;97476.59;;;4.89;100.00
10348;BME280;5220;43.192;23.284;2023-01-29T09:17:38;97469.25;;;5.00;100.00
10348;BME280;5220;43.192;23.284;2023-01-29T09:20:07;97468.34;;;5.01;100.00
10348;BME280;5220;43.192;23.284;2023-01-29T09:22:34;97457.78;;;5.07;100.00
10348;BME280;5220;43.192;23.284;2023-01-29T09:25:01;97465.38;;;5.10;100.00
10348;BME280;5220;43.192;23.284;2023-01-29T09:27:28;97457.38;;;4.96;100.00
10348;BME280;5220;43.192;23.284;2023-01-29T09:29:54;97457.06;;;5.04;100.00
10348;BME280;5220;43.192;23.284;2023-01-29T09:32:21;97462.66;;;5.13;100.00
10348;BME280;5220;43.192;23.284;2023-01-29T09:34:49;97449.78;;;5.13;100.00
10348;BME280;5220;43.192;23.284;2023-01-29T09:37:16;97446.28;;;5.14;100.00
10348;BME280;5220;43.192;23.284;2023-01-29T09:39:43;97454.16;;;5.11;100.00
10348;BME280;5220;43.192;23.284;2023-01-29T09:42:15;97448.81;;;5.16;100.00
10348;BME280;5220;43.192;23.284;2023-01-29T09:44:50;97441.63;;;5.22;100.00
10348;BME280;5220;43.192;23.284;2023-01-29T09:47:23;97441.41;;;5.27;100.00
10348;BME280;5220;43.192;23.284;2023-01-29T09:49:57;97436.63;;;5.19;100.00
10348;BME280;5220;43.192;23.284;2023-01-29T09:52:27;97433.63;;;5.28;100.00
10348;BME280;5220;43.192;23.284;2023-01-29T09:54:59;97440.44;;;5.29;100.00
10348;BME280;5220;43.192;23.284;2023-01-29T09:57:33;97435.22;;;5.31;100.00
10348;BME280;5220;43.192;23.284;2023-01-29T10:00:04;97435.56;;;5.42;100.00
10348;BME280;5220;43.192;23.284;2023-01-29T10:02:48;97437.97;;;5.47;100.00
10348;BME280;5220;43.192;23.284;2023-01-29T10:05:33;97429.03;;;5.54;100.00
10348;BME280;5220;43.192;23.284;2023-01-29T10:08:28;97433.50;;;5.50;100.00
10348;BME280;5220;43.192;23.284;2023-01-29T10:11:06;97426.94;;;5.62;100.00
10348;BME280;5220;43.192;23.284;2023-01-29T10:13:42;97422.06;;;5.56;100.00
10348;BME280;5220;43.192;23.284;2023-01-29T10:16:20;97421.50;;;5.49;100.00
10348;BME280;5220;43.192;23.284;2023-01-29T10:22:28;97414.47;;;5.53;100.00
10348;BME280;5220;43.192;23.284;2023-01-29T10:25:03;97413.84;;;5.48;100.00
10348;BME280;5220;43.192;23.284;2023-01-29T10:27:32;97413.69;;;5.51;100.00
10348;BME280;5220;43.192;23.284;2023-01-29T10:30:01;97411.31;;;5.65;100.00
10348;BME280;5220;43.192;23.284;2023-01-29T10:32:30;97408.41;;;5.72;100.00
10348;BME280;5220;43.192;23.284;2023-01-29T10:35:02;97405.72;;;5.74;100.00
10348;BME280;5220;43.192;23.284;2023-01-29T10:37:36;97397.13;;;5.73;100.00
10348;BME280;5220;43.192;23.284;2023-01-29T10:40:17;97401.50;;;5.91;100.00
10348;BME280;5220;43.192;23.284;2023-01-29T10:42:49;97402.78;;;6.00;100.00
10348;BME280;5220;43.192;23.284;2023-01-29T10:45:26;97393.59;;;5.94;100.00
10348;BME280;5220;43.192;23.284;2023-01-29T10:51:12;97388.59;;;6.09;100.00
10348;BME280;5220;43.192;23.284;2023-01-29T10:53:55;97380.25;;;6.21;100.00
10348;BME280;5220;43.192;23.284;2023-01-29T10:56:36;97372.88;;;6.30;100.00
10348;BME280;5220;43.192;23.284;2023-01-29T10:59:14;97371.00;;;6.34;100.00
10348;BME280;5220;43.192;23.284;2023-01-29T11:01:44;97364.69;;;6.39;100.00
10348;BME280;5220;43.192;23.284;2023-01-29T11:04:12;97365.69;;;6.37;100.00
10348;BME280;5220;43.192;23.284;2023-01-29T11:06:39;97356.94;;;6.57;100.00
10348;BME280;5220;43.192;23.284;2023-01-29T11:09:16;97357.41;;;6.47;100.00
10348;BME280;5220;43.192;23.284;2023-01-29T11:11:47;97347.06;;;6.47;100.00
10348;BME280;5220;43.192;23.284;2023-01-29T11:14:20;97347.09;;;6.80;100.00
10348;BME280;5220;43.192;23.284;2023-01-29T11:16:48;97352.72;;;6.71;100.00
10348;BME280;5220;43.192;23.284;2023-01-29T11:19:15;97352.50;;;6.41;100.00
10348;BME280;5220;43.192;23.284;2023-01-29T11:21:54;97353.13;;;6.46;100.00
10348;BME280;5220;43.192;23.284;2023-01-29T11:24:24;97345.75;;;6.56;100.00
10348;BME280;5220;43.192;23.284;2023-01-29T11:26:51;97346.72;;;6.71;100.00
10348;BME280;5220;43.192;23.284;2023-01-29T11:29:32;97352.16;;;6.82;100.00
10348;BME280;5220;43.192;23.284;2023-01-29T11:32:02;97348.66;;;6.83;100.00
10348;BME280;5220;43.192;23.284;2023-01-29T11:34:30;97346.69;;;6.88;100.00
10348;BME280;5220;43.192;23.284;2023-01-29T11:36:58;97339.53;;;6.76;100.00
10348;BME280;5220;43.192;23.284;2023-01-29T11:39:27;97334.34;;;6.93;100.00
10348;BME280;5220;43.192;23.284;2023-01-29T11:41:56;97324.09;;;7.07;100.00
10348;BME280;5220;43.192;23.284;2023-01-29T11:44:30;97338.06;;;7.20;100.00
10348;BME280;5220;43.192;23.284;2023-01-29T11:47:09;97332.72;;;7.23;100.00
10348;BME280;5220;43.192;23.284;2023-01-29T11:49:37;97329.72;;;7.31;100.00
10348;BME280;5220;43.192;23.284;2023-01-29T11:52:06;97322.88;;;7.30;100.00
10348;BME280;5220;43.192;23.284;2023-01-29T11:54:38;97324.78;;;7.11;100.00
10348;BME280;5220;43.192;23.284;2023-01-29T11:57:22;97329.91;;;6.95;100.00
10348;BME280;5220;43.192;23.284;2023-01-29T11:59:51;97319.31;;;6.84;100.00
10348;BME280;5220;43.192;23.284;2023-01-29T12:02:29;97316.44;;;6.73;100.00
10348;BME280;5220;43.192;23.284;2023-01-29T12:05:01;97320.22;;;6.83;100.00
10348;BME280;5220;43.192;23.284;2023-01-29T12:07:29;97325.16;;;6.87;100.00
10348;BME280;5220;43.192;23.284;2023-01-29T12:09:58;97320.06;;;6.86;100.00
10348;BME280;5220;43.192;23.284;2023-01-29T12:12:32;97319.25;;;7.01;100.00
10348;BME280;5220;43.192;23.284;2023-01-29T12:15:18;97320.94;;;7.02;100.00
10348;BME280;5220;43.192;23.284;2023-01-29T12:17:52;97318.59;;;7.13;100.00
10348;BME280;5220;43.192;23.284;2023-01-29T12:20:26;97326.03;;;7.19;100.00
10348;BME280;5220;43.192;23.284;2023-01-29T12:23:00;97326.69;;;7.23;100.00
10348;BME280;5220;43.192;23.284;2023-01-29T12:25:39;97326.88;;;7.20;100.00
10348;BME280;5220;43.192;23.284;2023-01-29T12:28:17;97327.19;;;7.14;100.00
10348;BME280;5220;43.192;23.284;2023-01-29T12:30:52;97331.22;;;7.03;100.00
10348;BME280;5220;43.192;23.284;2023-01-29T12:33:26;97322.00;;;6.98;100.00
10348;BME280;5220;43.192;23.284;2023-01-29T12:36:01;97319.00;;;6.90;100.00
10348;BME280;5220;43.192;23.284;2023-01-29T12:38:30;97322.66;;;6.86;100.00
10348;BME280;5220;43.192;23.284;2023-01-29T12:41:04;97321.72;;;6.71;100.00
10348;BME280;5220;43.192;23.284;2023-01-29T12:43:35;97317.56;;;6.52;100.00
10348;BME280;5220;43.192;23.284;2023-01-29T12:46:07;97318.38;;;6.52;100.00
10348;BME280;5220;43.192;23.284;2023-01-29T12:48:39;97317.91;;;6.61;100.00
10348;BME280;5220;43.192;23.284;2023-01-29T12:51:10;97322.09;;;6.64;100.00
10348;BME280;5220;43.192;23.284;2023-01-29T12:53:43;97327.09;;;6.67;100.00
10348;BME280;5220;43.192;23.284;2023-01-29T12:56:15;97325.66;;;6.61;100.00
10348;BME280;5220;43.192;23.284;2023-01-29T12:58:48;97326.56;;;6.60;100.00
10348;BME280;5220;43.192;23.284;2023-01-29T13:01:23;97325.09;;;6.56;100.00
10348;BME280;5220;43.192;23.284;2023-01-29T13:03:56;97327.81;;;6.53;100.00
10348;BME280;5220;43.192;23.284;2023-01-29T13:06:27;97328.66;;;6.54;100.00
10348;BME280;5220;43.192;23.284;2023-01-29T13:08:58;97331.56;;;6.47;100.00
10348;BME280;5220;43.192;23.284;2023-01-29T13:11:34;97336.19;;;6.41;100.00
10348;BME280;5220;43.192;23.284;2023-01-29T13:14:08;97340.38;;;6.43;100.00
10348;BME280;5220;43.192;23.284;2023-01-29T13:16:42;97326.66;;;6.41;100.00
10348;BME280;5220;43.192;23.284;2023-01-29T13:19:19;97336.72;;;6.47;100.00
10348;BME280;5220;43.192;23.284;2023-01-29T13:21:49;97332.22;;;6.51;100.00
10348;BME280;5220;43.192;23.284;2023-01-29T13:24:20;97339.16;;;6.51;100.00
10348;BME280;5220;43.192;23.284;2023-01-29T13:26:49;97331.31;;;6.52;100.00
10348;BME280;5220;43.192;23.284;2023-01-29T13:29:21;97330.56;;;6.50;100.00
10348;BME280;5220;43.192;23.284;2023-01-29T13:31:48;97341.91;;;6.47;100.00